Time;durP1;ratioP1;P1;durP2;ratioP2;P2;SDS_P1;SDS_P2;PMS_P1;PMS_P2;Temp;Humidity;BMP_temperature;BMP_pressure;BME280_temperature;BME280_humidity;BME280_pressure;Samples;Min_cycle;Max_cycle;Signal;HPM_P1;HPM_P2
2022/08/03 00:01:48;;;;;;;15.50;5.05;;;19.60;99.90;20.20;98810.00;;;;4982998;28;82152;-60
2022/08/03 00:04:14;;;;;;;10.35;4.85;;;;;20.20;98810.00;;;;4984335;28;84078;-60
2022/08/03 00:06:41;;;;;;;9.80;4.78;;;20.30;99.90;20.20;98811.00;;;;4991248;28;82303;-60
2022/08/03 00:09:07;;;;;;;13.48;5.32;;;;;20.20;98814.00;;;;5000570;28;82322;-60
2022/08/03 00:11:34;;;;;;;8.73;5.13;;;19.60;99.90;20.20;98807.00;;;;5000311;28;82904;-60
2022/08/03 00:14:01;;;;;;;12.75;5.40;;;19.90;99.90;20.20;98818.00;;;;5002724;28;83294;-60
2022/08/03 00:16:27;;;;;;;10.23;4.75;;;20.50;99.90;20.10;98818.00;;;;4977376;28;84799;-62
2022/08/03 00:18:53;;;;;;;11.35;4.90;;;19.70;99.90;20.00;98812.00;;;;5007437;28;83169;-60
2022/08/03 00:21:19;;;;;;;12.68;5.05;;;19.60;99.90;20.00;98811.00;;;;4997908;28;82335;-60
2022/08/03 00:23:46;;;;;;;9.10;4.63;;;;;20.00;98809.00;;;;5000918;28;83393;-62
2022/08/03 00:26:12;;;;;;;7.60;4.70;;;19.60;99.90;19.90;98812.00;;;;4996448;28;82724;-59
2022/08/03 00:28:38;;;;;;;12.55;4.93;;;19.80;99.90;19.90;98802.00;;;;4997206;28;81968;-60
2022/08/03 00:31:05;;;;;;;10.55;5.05;;;19.90;99.90;19.90;98807.00;;;;4999435;28;82321;-60
2022/08/03 00:33:32;;;;;;;12.30;5.05;;;19.60;99.90;19.90;98817.00;;;;4993915;28;82416;-60
2022/08/03 00:35:58;;;;;;;10.85;5.20;;;19.20;99.90;19.80;98810.00;;;;4995023;28;83715;-60
2022/08/03 00:38:24;;;;;;;11.52;5.00;;;;;19.70;98813.00;;;;4998609;28;83462;-60
2022/08/03 00:40:51;;;;;;;9.35;5.07;;;;;19.60;98812.00;;;;4995796;28;83269;-60
2022/08/03 00:43:17;;;;;;;10.52;5.22;;;19.60;99.90;19.60;98812.00;;;;4994322;28;83510;-60
2022/08/03 00:45:53;;;;;;;8.13;4.90;;;19.60;99.90;19.60;98811.00;;;;4998517;28;82366;-60
2022/08/03 00:48:20;;;;;;;11.88;7.00;;;;;19.60;98813.00;;;;4996492;28;83339;-60
2022/08/03 00:50:47;;;;;;;12.57;4.85;;;19.50;99.90;19.60;98803.00;;;;4988287;28;81947;-60
2022/08/03 00:53:13;;;;;;;11.13;4.88;;;18.90;99.90;19.70;98810.00;;;;4992968;28;82374;-60
2022/08/03 00:55:41;;;;;;;13.13;5.85;;;19.20;99.90;19.70;98807.00;;;;4993962;28;83606;-60
2022/08/03 00:58:09;;;;;;;10.35;5.18;;;19.60;99.90;19.60;98805.00;;;;5002199;28;82080;-60
2022/08/03 01:00:39;;;;;;;14.27;4.95;;;18.90;99.90;19.60;98800.00;;;;4993867;28;82032;-60
2022/08/03 01:03:08;;;;;;;11.88;5.00;;;19.40;99.90;19.60;98795.00;;;;5004840;28;82261;-60
2022/08/03 01:06:12;;;;;;;11.43;5.57;;;18.50;99.90;19.50;98794.00;;;;4999084;28;83507;-60
2022/08/03 01:09:07;;;;;;;14.77;5.30;;;19.60;99.90;19.60;98797.00;;;;4991100;28;84433;-60
2022/08/03 01:11:39;;;;;;;11.80;5.82;;;19.80;99.90;19.50;98803.00;;;;4990962;28;81958;-60
2022/08/03 01:14:17;;;;;;;9.52;5.22;;;19.30;99.90;19.50;98802.00;;;;4986495;28;82993;-60
2022/08/03 01:17:16;;;;;;;9.48;5.43;;;19.10;99.90;19.40;98802.00;;;;4997262;28;83610;-60
2022/08/03 01:19:45;;;;;;;15.85;5.78;;;19.10;99.90;19.30;98803.00;;;;5002692;28;83388;-60
2022/08/03 01:22:15;;;;;;;9.85;5.60;;;;;19.20;98801.00;;;;4998251;28;82378;-59
2022/08/03 01:25:02;;;;;;;9.93;5.47;;;19.20;99.90;19.10;98797.00;;;;4996075;28;82364;-60
2022/08/03 01:28:00;;;;;;;12.50;5.45;;;18.90;99.90;19.10;98786.00;;;;4977760;28;82063;-59
2022/08/03 01:30:32;;;;;;;12.30;5.22;;;18.90;99.90;19.00;98797.00;;;;4993168;28;83484;-60
2022/08/03 01:33:07;;;;;;;10.18;5.25;;;18.80;99.90;19.00;98787.00;;;;4995433;28;82947;-60
2022/08/03 01:36:04;;;;;;;9.48;5.05;;;19.30;99.90;19.10;98785.00;;;;4994091;28;82385;-60
2022/08/03 01:38:41;;;;;;;10.18;5.45;;;18.60;99.90;19.10;98804.00;;;;4988816;28;82591;-63
2022/08/03 01:41:12;;;;;;;10.13;4.82;;;19.00;99.90;19.10;98796.00;;;;4997799;28;83561;-64
2022/08/03 01:43:42;;;;;;;13.07;5.03;;;18.40;99.90;19.10;98799.00;;;;4994544;28;83128;-64
2022/08/03 01:46:09;;;;;;;10.45;5.80;;;19.30;99.90;19.10;98797.00;;;;4991416;28;82330;-63
2022/08/03 01:48:38;;;;;;;11.82;5.28;;;19.20;99.90;19.10;98798.00;;;;4993375;28;82637;-63
2022/08/03 01:51:08;;;;;;;9.38;5.55;;;18.90;99.90;19.10;98784.00;;;;4996901;28;83423;-63
2022/08/03 01:53:37;;;;;;;10.40;5.90;;;18.80;99.90;19.10;98783.00;;;;4992823;28;82387;-63
2022/08/03 01:56:06;;;;;;;9.60;5.20;;;19.00;99.90;19.10;98797.00;;;;4993690;28;82724;-63
2022/08/03 01:58:35;;;;;;;14.68;5.53;;;18.90;99.90;19.00;98796.00;;;;5002043;28;83932;-63
2022/08/03 02:01:04;;;;;;;12.18;6.47;;;18.90;99.90;19.10;98795.00;;;;4989564;28;83335;-64
2022/08/03 02:03:36;;;;;;;12.98;6.18;;;18.50;99.90;19.10;98804.00;;;;5005761;28;81893;-64
2022/08/03 02:06:02;;;;;;;13.35;6.03;;;;;19.10;98802.00;;;;4999565;28;82022;-64
2022/08/03 02:08:31;;;;;;;15.68;5.88;;;19.30;99.90;19.10;98808.00;;;;4991932;28;82790;-63
2022/08/03 02:10:59;;;;;;;13.30;5.75;;;19.30;99.90;19.20;98805.00;;;;4988062;28;83946;-64
2022/08/03 02:13:26;;;;;;;8.43;5.50;;;19.40;99.90;19.20;98813.00;;;;4989342;28;82106;-64
2022/08/03 02:15:53;;;;;;;10.98;5.38;;;19.10;99.90;19.30;98808.00;;;;4997673;28;82313;-63
2022/08/03 02:18:20;;;;;;;9.23;5.20;;;19.00;99.90;19.30;98808.00;;;;4993953;28;81919;-63
2022/08/03 02:20:47;;;;;;;15.70;5.82;;;19.00;99.90;19.40;98818.00;;;;4999325;28;82299;-63
2022/08/03 02:23:17;;;;;;;10.30;5.70;;;19.40;99.90;19.30;98801.00;;;;4993397;28;82979;-64
2022/08/03 02:25:52;;;;;;;12.88;5.85;;;18.80;99.90;19.40;98805.00;;;;4992601;28;83406;-63
2022/08/03 02:28:21;;;;;;;16.67;5.97;;;19.20;99.90;19.40;98806.00;;;;4998788;28;82665;-64
2022/08/03 02:30:54;;;;;;;10.23;5.47;;;18.90;99.90;19.50;98812.00;;;;4995203;28;82229;-64
2022/08/03 02:33:36;;;;;;;16.15;6.15;;;19.30;99.90;19.50;98813.00;;;;4973516;28;81949;-65
2022/08/03 02:36:05;;;;;;;9.93;5.85;;;19.80;99.90;19.50;98810.00;;;;4995205;28;82200;-64
2022/08/03 02:38:35;;;;;;;9.68;5.30;;;19.50;99.90;19.70;98818.00;;;;4991890;28;82546;-63
2022/08/03 02:41:08;;;;;;;12.95;5.95;;;19.50;99.90;19.80;98807.00;;;;4992719;28;82424;-65
2022/08/03 02:43:36;;;;;;;9.85;5.43;;;19.20;99.90;19.80;98813.00;;;;4993851;28;82038;-64
2022/08/03 02:46:03;;;;;;;11.15;5.78;;;19.40;99.90;19.90;98822.00;;;;4995610;28;82619;-64
2022/08/03 02:48:31;;;;;;;10.05;5.53;;;19.80;99.90;19.90;98808.00;;;;4993464;28;83338;-63
2022/08/03 02:51:00;;;;;;;12.25;5.88;;;19.70;99.90;19.90;98817.00;;;;4992479;28;83170;-64
2022/08/03 02:53:27;;;;;;;10.82;5.95;;;;;19.90;98817.00;;;;4995387;28;82028;-63
2022/08/03 02:55:54;;;;;;;7.60;5.38;;;20.00;99.90;20.00;98825.00;;;;4997919;28;82399;-63
2022/08/03 02:58:21;;;;;;;10.25;5.38;;;;;20.20;98826.00;;;;4992364;28;82523;-63
2022/08/03 03:00:50;;;;;;;10.98;5.85;;;20.10;99.90;20.40;98818.00;;;;4989482;28;82339;-63
2022/08/03 03:03:17;;;;;;;13.05;5.80;;;20.40;99.90;20.80;98819.00;;;;5002536;28;82869;-64
2022/08/03 03:05:45;;;;;;;12.00;5.30;;;17.80;99.90;21.30;98817.00;;;;4997609;28;82892;-64
2022/08/03 03:08:18;;;;;;;10.95;5.38;;;21.50;99.90;22.00;98811.00;;;;4994469;28;81774;-63
2022/08/03 03:10:45;;;;;;;9.73;4.85;;;22.00;99.90;22.60;98820.00;;;;4987159;28;82537;-64
2022/08/03 03:13:14;;;;;;;15.27;6.10;;;21.90;99.90;22.60;98812.00;;;;4995215;28;83265;-63
2022/08/03 03:15:42;;;;;;;13.60;6.10;;;22.10;99.90;22.70;98813.00;;;;4975841;28;83449;-63
2022/08/03 03:18:09;;;;;;;9.95;5.03;;;22.40;99.90;22.80;98813.00;;;;4994902;28;82605;-64
2022/08/03 03:20:37;;;;;;;11.65;5.63;;;22.40;99.90;23.10;98823.00;;;;4989305;28;83487;-64
2022/08/03 03:23:04;;;;;;;14.77;5.32;;;22.90;99.90;23.40;98824.00;;;;4976978;28;83247;-63
2022/08/03 03:25:32;;;;;;;15.02;5.30;;;23.30;99.90;23.60;98824.00;;;;4992500;28;82259;-64
2022/08/03 03:28:02;;;;;;;14.48;5.57;;;23.30;99.90;23.90;98822.00;;;;4995264;28;82494;-64
2022/08/03 03:30:28;;;;;;;8.05;5.38;;;23.50;99.90;23.90;98824.00;;;;4987574;28;81830;-64
2022/08/03 03:32:56;;;;;;;9.60;5.43;;;23.80;99.90;23.90;98829.00;;;;4991264;28;81906;-64
2022/08/03 03:35:23;;;;;;;10.13;5.70;;;23.80;99.90;24.10;98826.00;;;;4994501;28;82339;-64
2022/08/03 03:37:49;;;;;;;14.25;4.75;;;24.10;99.90;24.50;98831.00;;;;4995293;28;83542;-64
2022/08/03 03:40:15;;;;;;;10.70;5.50;;;24.50;99.90;24.90;98829.00;;;;4994498;28;84393;-64
2022/08/03 03:42:42;;;;;;;12.68;4.97;;;;;25.00;98835.00;;;;4986743;28;82182;-64
2022/08/03 03:45:09;;;;;;;11.50;4.97;;;;;24.80;98845.00;;;;5002477;28;83379;-64
2022/08/03 03:47:36;;;;;;;13.15;5.05;;;;;24.90;98841.00;;;;4987917;28;82415;-63
2022/08/03 03:50:06;;;;;;;15.13;5.10;;;24.50;99.90;25.10;98835.00;;;;5002158;28;82388;-64
2022/08/03 03:52:33;;;;;;;12.63;5.40;;;24.60;99.90;25.50;98844.00;;;;5000353;28;81821;-63
2022/08/03 03:55:00;;;;;;;16.40;6.65;;;;;25.80;98840.00;;;;5001502;28;82195;-64
2022/08/03 03:57:26;;;;;;;13.38;5.40;;;;;26.10;98842.00;;;;4994738;28;83020;-64
2022/08/03 03:59:52;;;;;;;9.57;5.95;;;25.60;99.90;26.20;98847.00;;;;5000090;28;82579;-64
2022/08/03 04:02:19;;;;;;;13.75;5.18;;;;;26.40;98845.00;;;;4988067;28;82882;-64
2022/08/03 04:11:10;;;;;;;12.25;5.55;;;26.10;99.90;26.60;98851.00;;;;4990556;28;82405;-64
2022/08/03 04:13:50;;;;;;;15.25;5.78;;;26.10;99.80;26.80;98849.00;;;;4988548;28;82474;-64
2022/08/03 04:16:21;;;;;;;11.57;5.10;;;26.20;99.60;26.80;98850.00;;;;4997012;28;83571;-64
2022/08/03 04:18:53;;;;;;;12.18;5.13;;;26.40;99.70;27.10;98859.00;;;;5007561;28;82373;-64
2022/08/03 04:21:22;;;;;;;7.30;5.10;;;26.70;99.90;27.20;98859.00;;;;5000489;28;82260;-64
2022/08/03 04:23:55;;;;;;;8.10;5.22;;;26.70;99.90;27.10;98861.00;;;;4979047;28;82407;-63
2022/08/03 04:26:23;;;;;;;10.40;5.20;;;26.40;99.70;27.10;98856.00;;;;4970150;28;84819;-64
2022/08/03 04:28:51;;;;;;;7.53;5.40;;;26.10;99.90;26.80;98858.00;;;;4991602;28;83815;-64
2022/08/03 04:31:21;;;;;;;13.60;5.63;;;26.00;99.90;26.60;98869.00;;;;4975782;28;84407;-64
2022/08/03 04:33:49;;;;;;;7.85;5.45;;;25.70;99.90;26.50;98870.00;;;;4993007;28;82200;-63
2022/08/03 04:36:25;;;;;;;18.08;5.68;;;25.80;99.70;26.40;98865.00;;;;4999976;28;82133;-64
2022/08/03 04:39:17;;;;;;;13.30;6.07;;;25.90;99.90;26.60;98861.00;;;;4992933;28;83261;-63
2022/08/03 04:41:45;;;;;;;9.57;5.65;;;25.90;99.90;26.70;98868.00;;;;4990049;28;82390;-63
2022/08/03 04:44:13;;;;;;;10.43;5.68;;;25.60;99.90;26.40;98861.00;;;;5000503;28;82501;-63
2022/08/03 04:46:41;;;;;;;10.68;5.85;;;25.70;99.90;26.30;98862.00;;;;4998993;28;83539;-64
2022/08/03 04:49:07;;;;;;;10.32;5.82;;;;;26.80;98862.00;;;;4998715;28;82587;-64
2022/08/03 04:51:36;;;;;;;11.10;5.35;;;26.20;99.90;27.00;98867.00;;;;5002975;28;82171;-64
2022/08/03 04:54:03;;;;;;;18.88;6.18;;;25.70;99.90;26.80;98860.00;;;;4989740;28;82805;-64
2022/08/03 04:56:30;;;;;;;14.95;5.93;;;;;27.10;98868.00;;;;4996383;28;82572;-63
2022/08/03 04:58:56;;;;;;;12.80;5.55;;;;;27.50;98864.00;;;;4996053;28;82628;-63
2022/08/03 05:01:22;;;;;;;14.55;5.90;;;27.00;99.90;27.80;98858.00;;;;4996185;28;82757;-64
2022/08/03 05:03:50;;;;;;;9.68;5.43;;;;;28.00;98865.00;;;;4993033;28;81912;-64
2022/08/03 05:06:16;;;;;;;11.48;6.05;;;;;27.90;98864.00;;;;4994815;28;82433;-63
2022/08/03 05:08:43;;;;;;;9.45;4.82;;;26.60;99.90;27.70;98862.00;;;;4993604;28;83481;-64
2022/08/03 05:11:09;;;;;;;11.27;5.70;;;;;27.80;98865.00;;;;4999050;28;82230;-64
2022/08/03 05:13:35;;;;;;;11.40;5.30;;;27.00;99.90;27.90;98864.00;;;;4995538;28;81982;-64
2022/08/03 05:16:01;;;;;;;11.07;5.50;;;27.20;99.90;27.90;98864.00;;;;4999014;28;82512;-64
2022/08/03 05:18:28;;;;;;;13.82;6.35;;;;;28.00;98873.00;;;;4996391;28;83564;-64
2022/08/03 05:20:54;;;;;;;15.57;5.38;;;27.50;99.90;28.20;98864.00;;;;4994067;28;84942;-64
2022/08/03 05:23:20;;;;;;;11.75;5.13;;;;;28.00;98866.00;;;;4998184;28;81906;-64
2022/08/03 05:25:47;;;;;;;9.50;4.95;;;;;27.80;98874.00;;;;4995249;28;82380;-64
2022/08/03 05:28:13;;;;;;;12.35;5.50;;;;;27.80;98870.00;;;;5000575;28;82670;-64
2022/08/03 05:30:40;;;;;;;10.27;5.38;;;;;27.60;98873.00;;;;4993857;28;82824;-64
2022/08/03 05:33:07;;;;;;;11.70;4.90;;;;;27.50;98872.00;;;;4994122;28;81925;-64
2022/08/03 05:35:34;;;;;;;8.75;5.25;;;;;27.30;98877.00;;;;4974439;28;81586;-64
2022/08/03 05:38:02;;;;;;;9.52;5.57;;;26.50;99.90;27.00;98876.00;;;;4993867;28;82621;-64
2022/08/03 05:40:29;;;;;;;11.77;5.57;;;;;27.00;98888.00;;;;4998261;28;82769;-64
2022/08/03 05:42:55;;;;;;;13.50;5.30;;;;;27.00;98878.00;;;;5000339;28;83036;-64
2022/08/03 05:45:22;;;;;;;12.55;6.18;;;26.10;99.90;26.80;98879.00;;;;4993366;28;82686;-64
2022/08/03 05:47:49;;;;;;;13.88;5.50;;;;;26.70;98882.00;;;;4992820;28;82554;-63
2022/08/03 05:50:18;;;;;;;14.73;6.05;;;26.00;99.50;26.70;98876.00;;;;4987426;28;82149;-64
2022/08/03 05:52:45;;;;;;;17.02;5.97;;;;;26.80;98877.00;;;;4996166;28;82044;-64
2022/08/03 05:55:12;;;;;;;11.35;5.10;;;26.50;99.60;27.20;98881.00;;;;4998305;28;82534;-64
2022/08/03 05:57:39;;;;;;;11.65;5.35;;;27.00;98.80;27.70;98883.00;;;;4989412;28;82574;-64
2022/08/03 06:00:09;;;;;;;12.00;4.85;;;27.10;99.90;27.80;98878.00;;;;4992547;28;82491;-63
2022/08/03 06:02:38;;;;;;;12.73;4.97;;;27.30;97.80;28.00;98883.00;;;;4990717;28;82096;-63
2022/08/03 06:05:06;;;;;;;13.50;5.10;;;27.00;99.90;28.20;98873.00;;;;4995203;28;82219;-63
2022/08/03 06:07:32;;;;;;;11.68;4.93;;;27.50;99.20;28.00;98877.00;;;;4998040;28;84618;-63
2022/08/03 06:10:01;;;;;;;9.23;4.60;;;;;27.60;98877.00;;;;4975367;28;83380;-63
2022/08/03 06:12:28;;;;;;;14.07;4.97;;;26.50;99.90;27.30;98874.00;;;;4994461;28;82069;-63
2022/08/03 06:14:54;;;;;;;14.18;4.82;;;26.10;99.90;27.00;98874.00;;;;4990109;28;83300;-64
2022/08/03 06:17:20;;;;;;;18.90;5.43;;;;;26.30;98877.00;;;;5000989;28;82318;-63
2022/08/03 06:19:47;;;;;;;14.40;4.60;;;25.30;99.90;26.00;98877.00;;;;5005071;28;82186;-63
2022/08/03 06:22:13;;;;;;;12.05;4.00;;;25.60;99.90;25.90;98874.00;;;;4995556;28;82327;-65
2022/08/03 06:24:39;;;;;;;10.32;4.35;;;;;25.90;98875.00;;;;4991921;28;82576;-65
2022/08/03 06:27:05;;;;;;;11.65;4.18;;;25.50;99.90;25.90;98879.00;;;;4994252;28;82807;-65
2022/08/03 06:29:32;;;;;;;19.30;4.50;;;;;25.80;98875.00;;;;4995921;28;82570;-65
2022/08/03 06:31:58;;;;;;;14.52;5.45;;;;;25.60;98880.00;;;;4997914;28;82994;-64
2022/08/03 06:34:25;;;;;;;15.07;4.60;;;;;25.40;98881.00;;;;5000120;28;82147;-65
2022/08/03 06:36:51;;;;;;;6.95;3.85;;;25.20;99.70;25.50;98888.00;;;;4997039;28;83210;-65
2022/08/03 06:39:17;;;;;;;12.05;4.43;;;25.30;99.90;25.50;98886.00;;;;4990456;28;82217;-65
2022/08/03 06:41:44;;;;;;;9.07;3.78;;;;;25.70;98881.00;;;;4996445;28;81963;-65
2022/08/03 06:44:11;;;;;;;10.73;4.18;;;;;25.80;98884.00;;;;4997628;28;82642;-65
2022/08/03 06:46:38;;;;;;;6.90;3.92;;;;;25.90;98883.00;;;;4996167;28;83125;-65
2022/08/03 06:49:05;;;;;;;9.80;3.58;;;;;26.00;98889.00;;;;4995318;28;82262;-64
2022/08/03 06:51:31;;;;;;;9.90;3.78;;;25.90;99.90;26.00;98892.00;;;;4997299;28;81838;-65
2022/08/03 06:53:58;;;;;;;11.90;3.25;;;;;26.10;98894.00;;;;4991101;28;82207;-65
2022/08/03 06:56:24;;;;;;;13.38;3.75;;;;;26.10;98891.00;;;;4991428;28;84776;-65
2022/08/03 06:58:50;;;;;;;8.80;3.40;;;26.20;99.90;26.10;98888.00;;;;5004844;28;82043;-65
2022/08/03 07:01:17;;;;;;;7.57;3.10;;;;;26.10;98887.00;;;;4998237;28;81898;-65
2022/08/03 07:03:43;;;;;;;10.32;3.85;;;;;26.20;98887.00;;;;5003648;28;82249;-65
2022/08/03 07:06:10;;;;;;;9.77;3.90;;;25.80;99.90;26.20;98885.00;;;;4995179;28;82629;-64
2022/08/03 07:08:36;;;;;;;7.25;4.10;;;;;26.10;98894.00;;;;4995008;28;82342;-65
2022/08/03 07:11:03;;;;;;;12.88;3.97;;;;;26.20;98890.00;;;;4991314;28;81810;-65
2022/08/03 07:13:29;;;;;;;7.00;3.33;;;;;26.50;98882.00;;;;5003473;28;83479;-65
2022/08/03 07:15:56;;;;;;;10.05;3.60;;;;;26.60;98896.00;;;;4995870;28;82665;-65
2022/08/03 07:18:22;;;;;;;11.20;3.90;;;;;26.50;98901.00;;;;4997828;28;82489;-65
2022/08/03 07:20:48;;;;;;;13.40;3.78;;;26.10;99.90;26.40;98896.00;;;;4997539;28;82797;-65
2022/08/03 07:23:15;;;;;;;11.18;3.50;;;;;26.40;98900.00;;;;4993930;28;82896;-62
2022/08/03 07:25:41;;;;;;;7.90;3.47;;;;;26.60;98906.00;;;;4994338;28;82631;-62
2022/08/03 07:28:07;;;;;;;9.40;3.25;;;26.00;99.90;26.70;98900.00;;;;4991285;28;82419;-62
2022/08/03 07:30:34;;;;;;;8.40;3.00;;;;;26.70;98892.00;;;;4994688;28;82277;-62
2022/08/03 07:33:01;;;;;;;7.95;3.70;;;26.80;99.90;26.80;98900.00;;;;4995510;28;83183;-62
2022/08/03 07:35:27;;;;;;;14.65;4.18;;;;;26.70;98895.00;;;;4992333;28;82623;-61
2022/08/03 07:37:55;;;;;;;14.13;3.50;;;;;26.80;98910.00;;;;4991673;28;81909;-61
2022/08/03 07:40:22;;;;;;;10.98;3.45;;;;;26.90;98914.00;;;;4993285;28;81840;-59
2022/08/03 07:42:48;;;;;;;11.45;3.63;;;;;26.90;98902.00;;;;4999038;28;82006;-59
2022/08/03 07:45:15;;;;;;;7.13;3.28;;;;;27.10;98899.00;;;;4992267;28;83963;-61
2022/08/03 07:47:41;;;;;;;7.30;3.20;;;;;27.10;98900.00;;;;4995540;28;83211;-61
2022/08/03 07:50:08;;;;;;;9.15;2.70;;;26.50;99.90;27.00;98913.00;;;;4992735;28;82644;-61
2022/08/03 07:52:46;;;;;;;7.10;3.10;;;;;27.00;98912.00;;;;4993163;28;82224;-60
2022/08/03 07:55:13;;;;;;;10.23;2.95;;;26.60;99.90;27.00;98912.00;;;;4996567;28;82474;-61
2022/08/03 07:57:39;;;;;;;4.82;2.45;;;;;27.00;98908.00;;;;4989517;28;82463;-60
2022/08/03 08:00:16;;;;;;;5.03;3.03;;;26.60;95.30;26.90;98911.00;;;;4989151;28;81897;-61
2022/08/03 08:02:43;;;;;;;9.20;2.88;;;26.30;99.90;26.90;98912.00;;;;4985103;28;82275;-61
2022/08/03 08:05:10;;;;;;;6.85;3.40;;;;;26.70;98925.00;;;;4992014;28;83445;-61
2022/08/03 08:07:37;;;;;;;6.15;3.13;;;26.20;95.90;26.60;98926.00;;;;4994373;28;82345;-61
2022/08/03 08:10:06;;;;;;;6.65;3.30;;;26.20;95.90;26.60;98924.00;;;;4987227;28;83142;-61
2022/08/03 08:12:33;;;;;;;6.10;3.13;;;;;26.50;98928.00;;;;4997505;28;81929;-61
2022/08/03 08:15:00;;;;;;;6.13;3.53;;;;;26.40;98923.00;;;;4987281;28;82512;-60
2022/08/03 08:17:26;;;;;;;7.85;3.90;;;;;26.30;98933.00;;;;5001403;28;82763;-60
2022/08/03 08:19:53;;;;;;;6.07;3.35;;;;;26.30;98930.00;;;;5003710;28;81848;-60
2022/08/03 08:22:20;;;;;;;8.10;3.22;;;;;26.30;98931.00;;;;4990808;28;85536;-61
2022/08/03 08:24:47;;;;;;;5.68;3.20;;;;;26.10;98928.00;;;;4994819;28;82681;-60
2022/08/03 08:27:14;;;;;;;9.85;3.40;;;25.60;98.40;26.10;98926.00;;;;4995089;28;82240;-60
2022/08/03 08:29:40;;;;;;;5.43;3.58;;;25.70;99.90;26.10;98925.00;;;;4996749;28;82949;-61
2022/08/03 08:32:07;;;;;;;9.77;3.35;;;25.60;99.90;26.20;98933.00;;;;4997724;28;83360;-61
2022/08/03 08:34:34;;;;;;;6.90;4.18;;;;;26.40;98922.00;;;;4998845;28;83887;-61
2022/08/03 08:37:01;;;;;;;10.68;3.53;;;;;26.80;98908.00;;;;4990461;28;83700;-61
2022/08/03 08:39:27;;;;;;;6.93;3.60;;;27.10;99.90;27.20;98932.00;;;;4998852;28;81887;-61
2022/08/03 08:41:53;;;;;;;6.30;2.83;;;26.90;99.90;27.50;98925.00;;;;5001389;28;82098;-61
2022/08/03 08:44:20;;;;;;;6.53;3.78;;;;;27.90;98920.00;;;;4992069;28;82546;-61
2022/08/03 08:46:47;;;;;;;14.32;4.32;;;27.20;99.90;28.10;98923.00;;;;5001858;28;83461;-61
2022/08/03 08:49:17;;;;;;;10.27;3.85;;;27.60;96.80;28.20;98915.00;;;;4997333;28;82206;-61
2022/08/03 08:51:47;;;;;;;15.77;3.40;;;27.70;99.90;28.30;98928.00;;;;4995844;28;82553;-61
2022/08/03 08:54:15;;;;;;;8.00;3.42;;;28.10;93.80;28.60;98923.00;;;;4999946;28;83256;-61
2022/08/03 08:56:42;;;;;;;8.45;3.60;;;;;28.70;98920.00;;;;5004413;28;82778;-61
2022/08/03 08:59:08;;;;;;;9.95;3.72;;;28.80;99.90;28.80;98929.00;;;;5005124;28;82807;-60
2022/08/03 09:01:34;;;;;;;6.40;4.13;;;;;28.80;98926.00;;;;4990316;28;82284;-61
2022/08/03 09:04:05;;;;;;;11.60;3.50;;;28.30;92.60;28.70;98924.00;;;;4986894;28;83487;-61
2022/08/03 09:06:31;;;;;;;7.35;3.40;;;28.20;92.30;28.60;98920.00;;;;4999606;28;82283;-61
2022/08/03 09:08:58;;;;;;;8.15;3.40;;;;;28.60;98925.00;;;;4995225;28;81847;-62
2022/08/03 09:11:52;;;;;;;11.20;3.53;;;28.10;99.90;28.60;98918.00;;;;4993929;28;82463;-60
2022/08/03 09:14:46;;;;;;;6.80;3.38;;;;;28.50;98927.00;;;;5005157;28;82681;-61
2022/08/03 09:17:55;;;;;;;10.23;4.18;;;27.90;93.00;28.40;98925.00;;;;5000176;28;83824;-61
2022/08/03 09:20:54;;;;;;;7.65;3.17;;;28.50;94.00;28.40;98930.00;;;;5003064;28;82629;-61
2022/08/03 09:24:21;;;;;;;;;;;;;;;;;;;;;
2022/08/03 09:27:22;;;;;;;5.50;3.05;;;27.60;92.90;28.00;98934.00;;;;4995753;28;84949;-62
2022/08/03 09:30:29;;;;;;;10.57;3.60;;;27.60;99.90;27.90;98936.00;;;;4995953;28;83743;-61
2022/08/03 09:33:24;;;;;;;7.22;3.30;;;27.90;99.90;28.10;98950.00;;;;4993594;28;82520;-61
2022/08/03 09:36:10;;;;;;;9.88;3.17;;;27.60;92.40;28.10;98941.00;;;;4975587;28;84795;-59
2022/08/03 09:39:41;;;;;;;6.88;3.03;;;27.30;92.80;27.80;98945.00;;;;4994536;28;82641;-59
2022/08/03 09:42:37;;;;;;;11.90;3.10;;;;;27.60;98944.00;;;;4993744;28;82535;-60
2022/08/03 09:45:36;;;;;;;6.50;3.28;;;27.20;93.30;27.50;98944.00;;;;4997562;28;81943;-60
2022/08/03 09:48:52;;;;;;;6.78;3.17;;;27.00;93.50;27.40;98932.00;;;;4998108;28;84206;-60
2022/08/03 09:55:10;;;;;;;5.50;3.40;;;27.00;99.90;27.20;98933.00;;;;4999109;28;84170;-59
2022/08/03 09:58:09;;;;;;;6.57;3.03;;;26.70;94.20;27.00;98941.00;;;;4998809;28;83223;-60
2022/08/03 10:01:42;;;;;;;10.27;3.17;;;26.60;94.10;27.00;98941.00;;;;4994059;28;84117;-59
2022/08/03 10:05:08;;;;;;;8.07;2.90;;;26.80;99.90;27.10;98933.00;;;;4999503;28;83504;-59
2022/08/03 10:08:35;;;;;;;6.97;3.33;;;27.00;93.60;27.40;98940.00;;;;4995416;28;83782;-59
2022/08/03 10:11:06;;;;;;;7.05;2.97;;;;;27.50;98932.00;;;;4995934;28;82155;-66
2022/08/03 10:13:33;;;;;;;6.43;2.53;;;;;27.70;98938.00;;;;5003435;28;82390;-64
2022/08/03 10:16:00;;;;;;;6.13;2.90;;;27.40;99.90;27.70;98946.00;;;;4999287;28;83142;-64
2022/08/03 10:18:26;;;;;;;4.97;3.50;;;;;27.80;98938.00;;;;5004529;28;82235;-64
2022/08/03 10:21:00;;;;;;;4.10;3.08;;;27.60;92.70;27.90;98937.00;;;;4999584;28;82988;-64
2022/08/03 10:23:27;;;;;;;6.55;3.47;;;;;27.90;98940.00;;;;4982696;28;82491;-64
2022/08/03 10:26:01;;;;;;;7.28;3.17;;;27.60;92.60;28.00;98931.00;;;;4992898;28;83844;-64
2022/08/03 10:28:41;;;;;;;6.22;3.10;;;27.60;92.70;28.00;98941.00;;;;4997179;28;84389;-64
2022/08/03 10:31:08;;;;;;;6.32;3.13;;;;;28.00;98938.00;;;;4991020;28;82078;-64
2022/08/03 10:33:41;;;;;;;8.98;3.17;;;27.80;93.20;28.10;98938.00;;;;4971452;28;82528;-64
2022/08/03 10:36:09;;;;;;;9.38;3.60;;;27.90;99.90;28.20;98939.00;;;;4995991;28;82389;-64
2022/08/03 10:38:48;;;;;;;8.80;3.38;;;27.90;92.90;28.30;98937.00;;;;4992079;28;82364;-64
2022/08/03 10:41:21;;;;;;;10.32;3.40;;;28.10;92.90;28.40;98944.00;;;;4987974;28;81998;-64
2022/08/03 10:44:18;;;;;;;10.63;3.72;;;28.20;98.50;28.40;98942.00;;;;4996989;28;84484;-64
2022/08/03 10:46:46;;;;;;;7.30;2.78;;;;;28.40;98943.00;;;;4986346;28;82363;-64
2022/08/03 10:49:15;;;;;;;5.63;3.28;;;28.10;92.60;28.50;98942.00;;;;4992350;28;83332;-64
2022/08/03 10:51:44;;;;;;;6.90;3.28;;;28.20;91.60;28.60;98945.00;;;;5000409;28;82934;-64
2022/08/03 10:57:48;;;;;;;12.48;5.65;;;28.10;95.60;28.80;98946.00;;;;4996497;28;83685;-64
2022/08/03 11:00:20;;;;;;;9.73;3.22;;;28.90;92.70;28.80;98946.00;;;;4993571;28;82549;-64
2022/08/03 11:03:09;;;;;;;7.55;2.95;;;28.50;91.70;28.90;98948.00;;;;4991095;28;82279;-65
2022/08/03 11:05:46;;;;;;;5.10;3.00;;;28.80;91.80;29.00;98958.00;;;;4991797;28;82777;-64
2022/08/03 11:08:21;;;;;;;8.35;3.05;;;28.60;91.80;29.10;98962.00;;;;4991547;28;82719;-65
2022/08/03 11:10:49;;;;;;;39.13;6.28;;;28.70;91.80;29.20;98952.00;;;;4995750;28;82316;-65
2022/08/03 11:13:19;;;;;;;9.30;3.80;;;29.10;99.90;29.20;98951.00;;;;4997426;28;81940;-65
2022/08/03 11:15:54;;;;;;;13.88;3.97;;;28.80;91.20;29.20;98953.00;;;;4999697;28;82763;-65
2022/08/03 11:18:21;;;;;;;12.75;3.63;;;28.90;99.90;29.30;98952.00;;;;5003919;28;83320;-65
2022/08/03 11:20:52;;;;;;;9.52;3.35;;;;;29.40;98953.00;;;;5002097;28;84308;-64
2022/08/03 11:23:46;;;;;;;11.27;3.47;;;28.90;90.90;29.40;98953.00;;;;4993831;28;82019;-65
2022/08/03 11:26:21;;;;;;;4.72;3.08;;;29.10;90.20;29.60;98954.00;;;;4991054;28;82339;-65
2022/08/03 11:28:48;;;;;;;4.90;3.08;;;29.20;99.00;29.70;98953.00;;;;4993424;28;82576;-64
2022/08/03 11:31:32;;;;;;;6.05;3.35;;;29.30;89.90;29.90;98944.00;;;;4997577;28;82622;-64
2022/08/03 11:34:05;;;;;;;4.65;2.70;;;29.50;89.10;30.10;98956.00;;;;5001624;28;81955;-65
2022/08/03 11:37:22;;;;;;;9.40;3.38;;;29.60;99.90;30.00;98952.00;;;;4989371;28;82021;-65
2022/08/03 11:39:51;;;;;;;9.18;3.55;;;29.40;90.30;30.00;98951.00;;;;4988355;28;82511;-65
2022/08/03 11:42:25;;;;;;;5.32;2.85;;;29.50;90.10;30.00;98952.00;;;;4986131;28;82310;-65
2022/08/03 11:44:56;;;;;;;7.90;3.30;;;29.20;90.50;29.70;98953.00;;;;4987319;28;82767;-64
2022/08/03 11:47:28;;;;;;;11.82;3.80;;;29.20;90.40;29.60;98953.00;;;;4994876;28;83403;-66
2022/08/03 11:49:59;;;;;;;8.23;2.88;;;29.40;99.90;29.60;98947.00;;;;4986761;28;83112;-64